Accueil
METAR-TAF:

METAR-TAF

Aéroports :

Inukjuak, Québec, Canada

latitude: 58-28N, longitude: 078-05W, altitude: 25 m

Observation

Le bulletin a été fait il y a 28 minutes, à 22:00 UTC
Vent 11 kt de sud-est
Température 2°C
Humidité 75%
Pression 1014 hPa
Visibilité: 14.5 km
Ciel clair

METAR: CYPH 192200Z AUTO 13011KT 9SM CLR 02/M02 A2995 RMK SLP147

Heure: 18:28 (22:28 UTC)

Prévision

Le bulletin a été fait il y a 3 heures et 23 minutes, à 19:05 UTC
Prévision valable du 19 à 19 UTC au 20 à 06 UTC
Vent 15 kt de sud/sud-est
Visibilité: 10 km
Nuages fragmentés à une hauteur de 1500 ft
Temporairement
du 19 à 19 UTC au 20 à 06 UTC
Nuages épars à une hauteur de 1500 ft

TAF: CYPH 191905Z 1919/2006 15015KT P6SM BKN015 TEMPO 1919/2006 SCT015 RMK FCST BASED ON AUTO OBS. NXT FCST BY 200000Z

Observations et prévisions météorologiques de plus de 4000 aéroports (messages METAR et TAF).

Les stations disponibles sont représentées par des disques jaunes et rouges sur la carte.

Passer la souris dessus pour voir le nom de la station.

Cliquer dessus pour voir les observations et prévisions météorologiques.

Pour changer de carte: cliquez sur les boutons verts avec une croix noire pour zoomer, sur le bouton vert avec un tiret pour effectuer un zoom arrière, ou sur les flèches vertes pour les cartes adjacentes.


METAR-TAF: